Time;durP1;ratioP1;P1;durP2;ratioP2;P2;SDS_P1;SDS_P2;PMS_P1;PMS_P2;Temp;Humidity;BMP_temperature;BMP_pressure;BME280_temperature;BME280_humidity;BME280_pressure;Samples;Min_cycle;Max_cycle;Signal;HPM_P1;HPM_P2
2022/12/13 00:01:58;;;;;;;69.20;34.20;;;;;;;-0.43;100.00;100356.16;105370;1289;62335;-69
2022/12/13 00:04:27;;;;;;;80.30;36.00;;;;;;;-0.40;100.00;100359.64;105313;1286;61574;-69
2022/12/13 00:06:56;;;;;;;73.30;35.30;;;;;;;-0.35;100.00;100356.90;105189;1299;71419;-70
2022/12/13 00:09:25;;;;;;;87.70;39.70;;;;;;;-0.35;100.00;100361.88;105465;1292;70449;-70
2022/12/13 00:11:54;;;;;;;90.20;39.60;;;;;;;-0.34;100.00;100366.13;105341;1293;70710;-70
2022/12/13 00:14:22;;;;;;;77.10;38.40;;;;;;;-0.37;100.00;100365.73;105333;1291;73067;-70
2022/12/13 00:16:51;;;;;;;75.80;37.80;;;;;;;-0.34;100.00;100367.15;105331;1291;59722;-69
2022/12/13 00:19:20;;;;;;;81.00;38.10;;;;;;;-0.34;100.00;100365.09;105352;1283;60889;-69
2022/12/13 00:21:51;;;;;;;73.70;35.50;;;;;;;-0.31;100.00;100361.05;105314;1295;73115;-70
2022/12/13 00:24:20;;;;;;;77.70;38.00;;;;;;;-0.31;100.00;100360.91;105488;1289;71597;-71
2022/12/13 00:26:48;;;;;;;74.00;37.30;;;;;;;-0.30;100.00;100363.43;105329;1298;69835;-71
2022/12/13 00:29:17;;;;;;;80.20;40.00;;;;;;;-0.31;100.00;100359.69;105163;1292;71855;-73
2022/12/13 00:31:46;;;;;;;83.60;39.00;;;;;;;-0.27;100.00;100366.77;105342;1293;59787;-71
2022/12/13 00:34:30;;;;;;;79.80;37.90;;;;;;;-0.29;100.00;100373.66;105334;1295;59015;-70
2022/12/13 00:36:59;;;;;;;76.30;37.00;;;;;;;-0.28;100.00;100371.59;105323;1293;74619;-71
2022/12/13 00:39:28;;;;;;;73.50;38.80;;;;;;;-0.28;100.00;100365.58;105316;1291;72202;-70
2022/12/13 00:41:57;;;;;;;68.10;32.50;;;;;;;-0.24;100.00;100361.01;105136;1289;70463;-72
2022/12/13 00:44:25;;;;;;;67.00;30.60;;;;;;;-0.25;100.00;100365.14;105118;1295;73854;-71
2022/12/13 00:46:55;;;;;;;69.90;32.10;;;;;;;-0.23;100.00;100358.73;105132;1294;61843;-70
2022/12/13 00:49:24;;;;;;;62.90;28.40;;;;;;;-0.22;100.00;100358.21;105132;1295;59838;-71
2022/12/13 00:51:52;;;;;;;44.50;21.70;;;;;;;-0.21;100.00;100358.85;105011;1301;74469;-70
2022/12/13 00:54:21;;;;;;;48.80;22.40;;;;;;;-0.20;100.00;100347.87;105427;1288;70894;-71
2022/12/13 00:56:50;;;;;;;33.70;18.00;;;;;;;-0.21;100.00;100347.39;105276;1295;68797;-71
2022/12/13 00:59:20;;;;;;;48.40;22.30;;;;;;;-0.21;100.00;100348.59;105193;1298;74103;-72
2022/12/13 01:01:48;;;;;;;44.40;21.40;;;;;;;-0.22;100.00;100352.21;105269;1293;62806;-70
2022/12/13 01:04:17;;;;;;;35.70;19.00;;;;;;;-0.25;100.00;100355.05;105120;1295;60495;-73
2022/12/13 01:06:48;;;;;;;31.50;17.30;;;;;;;-0.30;100.00;100361.34;105113;1295;72401;-71
2022/12/13 01:09:29;;;;;;;38.50;18.90;;;;;;;-0.33;100.00;100360.09;105290;1288;71143;-71
2022/12/13 01:12:05;;;;;;;29.90;15.80;;;;;;;-0.37;100.00;100352.38;105315;1295;68799;-71
2022/12/13 01:14:35;;;;;;;32.30;16.20;;;;;;;-0.46;99.89;100354.38;105258;1296;72078;-69
2022/12/13 01:17:05;;;;;;;32.60;16.70;;;;;;;-0.45;100.00;100358.63;105349;1295;60602;-69
2022/12/13 01:19:33;;;;;;;33.20;17.00;;;;;;;-0.58;97.98;100359.36;105173;1295;60356;-69
2022/12/13 01:22:05;;;;;;;32.60;17.50;;;;;;;-0.56;100.00;100362.89;105143;1293;71501;-71
2022/12/13 01:24:34;;;;;;;39.30;18.90;;;;;;;-0.61;100.00;100362.39;104974;1301;69640;-68
2022/12/13 01:27:03;;;;;;;35.70;17.20;;;;;;;-0.71;99.44;100364.23;105160;1294;68801;-69
2022/12/13 01:29:32;;;;;;;38.70;19.40;;;;;;;-0.68;100.00;100362.10;105038;1297;71379;-71
2022/12/13 01:32:01;;;;;;;32.50;16.90;;;;;;;-0.80;99.52;100366.91;105146;1289;59718;-71
2022/12/13 01:34:29;;;;;;;36.10;18.10;;;;;;;-0.71;100.00;100368.34;105317;1289;60370;-71
2022/12/13 01:36:58;;;;;;;36.50;18.90;;;;;;;-0.75;100.00;100369.48;104335;1293;1354661;-70
2022/12/13 01:39:27;;;;;;;33.60;17.30;;;;;;;-0.76;100.00;100373.46;105449;1290;69729;-70
2022/12/13 01:42:02;;;;;;;25.40;12.10;;;;;;;-0.75;100.00;100380.11;105053;1298;68404;-70
2022/12/13 01:44:55;;;;;;;28.80;15.50;;;;;;;-0.76;100.00;100386.80;105306;1291;73255;-70
2022/12/13 01:47:37;;;;;;;29.70;15.70;;;;;;;-0.85;97.17;100393.06;105318;1298;61217;-69
2022/12/13 01:50:12;;;;;;;21.80;11.40;;;;;;;-0.76;98.85;100399.45;105168;1294;60660;-71
2022/12/13 01:52:42;;;;;;;28.40;15.80;;;;;;;-0.70;100.00;100402.69;105153;1295;72461;-70
2022/12/13 01:55:14;;;;;;;36.30;17.50;;;;;;;-0.70;100.00;100408.51;105448;1296;69819;-70
2022/12/13 01:57:46;;;;;;;38.70;18.40;;;;;;;-0.78;98.28;100408.90;105175;1300;68839;-69
2022/12/13 02:00:15;;;;;;;34.50;16.40;;;;;;;-0.75;98.78;100417.38;105038;1303;74140;-70
2022/12/13 02:02:45;;;;;;;46.60;20.60;;;;;;;-0.75;100.00;100419.24;105294;1295;61225;-70
2022/12/13 02:05:27;;;;;;;41.30;20.60;;;;;;;-0.85;100.00;100419.37;105063;1291;58292;-68
2022/12/13 02:07:58;;;;;;;34.90;16.80;;;;;;;-0.89;100.00;100422.08;105345;1295;73629;-70
2022/12/13 02:10:28;;;;;;;32.20;17.00;;;;;;;-0.97;100.00;100424.36;105183;1289;71633;-71
2022/12/13 02:12:57;;;;;;;36.20;16.90;;;;;;;-1.04;99.19;100430.04;105135;1295;70964;-71
2022/12/13 02:15:42;;;;;;;33.30;17.20;;;;;;;-1.04;100.00;100428.16;105016;1303;72299;-71
2022/12/13 02:18:57;;;;;;;34.10;16.40;;;;;;;-1.11;100.00;100432.30;105180;1292;60239;-69
2022/12/13 02:21:42;;;;;;;25.70;14.10;;;;;;;-1.17;100.00;100432.64;105093;1291;60696;-69
2022/12/13 02:24:52;;;;;;;41.50;20.70;;;;;;;-1.25;100.00;100434.91;105319;1292;72575;-68
2022/12/13 02:27:44;;;;;;;43.90;20.00;;;;;;;-1.33;100.00;100442.16;105434;1289;70971;-71
2022/12/13 02:30:30;;;;;;;41.90;20.40;;;;;;;-1.48;100.00;100436.55;105171;1292;68828;-71
2022/12/13 02:33:21;;;;;;;42.10;19.70;;;;;;;-1.57;98.16;100441.25;105111;1297;72784;-69
2022/12/13 02:36:07;;;;;;;35.00;18.20;;;;;;;-1.60;96.87;100435.00;105126;1294;60174;-71
2022/12/13 02:39:20;;;;;;;41.80;20.60;;;;;;;-1.65;96.08;100436.50;105356;1289;58832;-71
2022/12/13 02:42:06;;;;;;;41.50;19.40;;;;;;;-1.68;100.00;100438.98;105345;1292;72524;-70
2022/12/13 02:45:12;;;;;;;38.80;15.20;;;;;;;-1.78;99.74;100439.59;105457;1285;71658;-70
2022/12/13 02:47:53;;;;;;;21.40;11.60;;;;;;;-1.82;100.00;100440.54;105338;1291;71038;-74
2022/12/13 02:50:25;;;;;;;15.50;7.50;;;;;;;-1.91;98.07;100444.17;105179;1292;72223;-71
2022/12/13 02:52:54;;;;;;;17.90;8.30;;;;;;;-2.08;95.90;100442.06;105298;1290;62075;-69
2022/12/13 02:55:23;;;;;;;26.60;11.80;;;;;;;-2.25;95.74;100441.27;105310;1298;60389;-70
2022/12/13 02:57:55;;;;;;;35.70;16.80;;;;;;;-2.38;97.28;100446.02;105124;1291;74377;-69
2022/12/13 03:01:06;;;;;;;43.60;21.90;;;;;;;-2.48;98.52;100447.10;105418;1289;69413;-70
2022/12/13 03:04:32;;;;;;;37.40;17.20;;;;;;;-2.58;99.46;100451.94;105220;1292;69078;-69
2022/12/13 03:07:06;;;;;;;35.00;15.70;;;;;;;-2.67;99.43;100449.92;105312;1292;73937;-70
2022/12/13 03:10:05;;;;;;;26.00;11.20;;;;;;;-2.75;99.21;100449.41;105309;1302;60389;-70
2022/12/13 03:16:05;;;;;;;38.80;19.00;;;;;;;-2.91;99.26;100454.86;105235;1288;72994;-69
2022/12/13 03:18:35;;;;;;;44.80;21.00;;;;;;;-2.96;99.96;100451.55;105460;1289;69703;-71
2022/12/13 03:21:07;;;;;;;52.20;21.70;;;;;;;-3.01;100.00;100459.32;105427;1293;69544;-71
2022/12/13 03:23:37;;;;;;;41.70;20.30;;;;;;;-3.06;100.00;100455.18;105180;1292;72108;-70
2022/12/13 03:26:19;;;;;;;64.60;26.40;;;;;;;-3.01;100.00;100445.86;105154;1294;61647;-70
2022/12/13 03:28:48;;;;;;;63.10;26.60;;;;;;;-3.05;100.00;100447.83;105179;1297;61332;-70
2022/12/13 03:31:17;;;;;;;59.30;27.00;;;;;;;-3.10;100.00;100450.83;105121;1288;74372;-70
2022/12/13 03:33:46;;;;;;;66.60;28.20;;;;;;;-3.11;100.00;100453.23;105326;1290;72706;-71
2022/12/13 03:36:17;;;;;;;61.80;27.60;;;;;;;-3.11;100.00;100450.15;105056;1301;71307;-72
2022/12/13 03:38:49;;;;;;;61.70;27.70;;;;;;;-3.11;100.00;100449.66;105154;1295;71138;-71
2022/12/13 03:41:22;;;;;;;53.50;25.90;;;;;;;-3.12;100.00;100447.96;105174;1298;63027;-71
2022/12/13 03:43:50;;;;;;;60.00;27.90;;;;;;;-3.10;100.00;100447.58;105393;1288;60277;-71
2022/12/13 03:46:19;;;;;;;62.50;28.00;;;;;;;-3.14;100.00;100445.11;105376;1294;73312;-70
2022/12/13 03:48:48;;;;;;;63.20;28.90;;;;;;;-3.19;100.00;100445.73;105466;1289;70468;-70
2022/12/13 03:51:17;;;;;;;59.30;27.50;;;;;;;-3.22;100.00;100448.00;105390;1295;70745;-70
2022/12/13 03:53:46;;;;;;;47.90;24.70;;;;;;;-3.24;100.00;100447.69;105364;1298;73244;-72
2022/12/13 03:56:15;;;;;;;45.10;22.50;;;;;;;-3.24;100.00;100450.58;105365;1290;60627;-71
2022/12/13 03:58:44;;;;;;;56.70;30.30;;;;;;;-3.24;100.00;100449.23;105186;1296;59073;-71
2022/12/13 04:01:15;;;;;;;71.20;34.60;;;;;;;-3.27;100.00;100451.34;105493;1289;75284;-71
2022/12/13 04:03:46;;;;;;;50.60;26.80;;;;;;;-3.30;100.00;100455.30;105346;1289;72802;-70
2022/12/13 04:06:15;;;;;;;50.80;25.50;;;;;;;-3.34;100.00;100462.55;105200;1295;70523;-70
2022/12/13 04:08:51;;;;;;;59.80;29.20;;;;;;;-3.42;100.00;100458.77;105341;1289;74380;-71
2022/12/13 04:14:11;;;;;;;45.30;25.40;;;;;;;-3.60;100.00;100450.77;105357;1290;60160;-70
2022/12/13 04:16:51;;;;;;;46.60;25.20;;;;;;;-3.65;100.00;100455.64;105132;1294;74536;-72
2022/12/13 04:19:20;;;;;;;44.90;21.10;;;;;;;-3.71;100.00;100457.61;105305;1296;70243;-70
2022/12/13 04:21:53;;;;;;;45.20;22.20;;;;;;;-3.78;100.00;100456.36;105284;1296;68124;-70
2022/12/13 04:24:23;;;;;;;56.90;26.10;;;;;;;-3.82;100.00;100454.57;105071;1296;73102;-71
2022/12/13 04:27:00;;;;;;;42.80;23.40;;;;;;;-3.86;100.00;100451.56;105152;1299;59661;-69
2022/12/13 04:29:29;;;;;;;41.30;22.20;;;;;;;-3.90;100.00;100454.88;105205;1302;59654;-71
2022/12/13 04:32:03;;;;;;;49.30;24.50;;;;;;;-3.94;100.00;100456.99;105152;1296;72603;-70
2022/12/13 04:34:52;;;;;;;47.10;23.00;;;;;;;-4.05;100.00;100452.24;105037;1289;69506;-71
2022/12/13 04:37:40;;;;;;;42.00;22.50;;;;;;;-4.12;100.00;100453.38;105203;1294;68630;-72
2022/12/13 04:40:13;;;;;;;50.90;24.50;;;;;;;-4.18;100.00;100451.42;105161;1298;73895;-72
2022/12/13 04:42:49;;;;;;;60.60;31.30;;;;;;;-4.20;100.00;100448.07;105202;1290;59678;-71
2022/12/13 04:45:22;;;;;;;44.30;22.50;;;;;;;-4.22;100.00;100447.40;105183;1295;60621;-71
2022/12/13 04:47:50;;;;;;;47.00;25.10;;;;;;;-4.25;100.00;100453.92;105023;1302;74490;-71
2022/12/13 04:50:19;;;;;;;54.70;26.10;;;;;;;-4.29;100.00;100458.73;105360;1298;71161;-71
2022/12/13 04:52:48;;;;;;;49.90;25.10;;;;;;;-4.35;100.00;100455.79;105172;1289;71439;-72
2022/12/13 04:55:16;;;;;;;58.70;26.10;;;;;;;-4.43;100.00;100461.17;105158;1291;73554;-72
2022/12/13 04:57:45;;;;;;;55.10;27.50;;;;;;;-4.52;100.00;100463.85;105195;1295;61063;-71
2022/12/13 05:00:14;;;;;;;50.70;26.90;;;;;;;-4.60;100.00;100465.33;105165;1300;58262;-72
2022/12/13 05:02:43;;;;;;;53.40;25.20;;;;;;;-4.63;100.00;100466.38;105133;1295;72585;-71
2022/12/13 05:05:13;;;;;;;52.70;25.40;;;;;;;-4.64;100.00;100465.38;105462;1298;72355;-72
2022/12/13 05:07:42;;;;;;;51.30;25.50;;;;;;;-4.67;100.00;100460.16;105152;1296;69680;-73
2022/12/13 05:10:11;;;;;;;51.90;27.00;;;;;;;-4.70;100.00;100460.19;105430;1290;72613;-72
2022/12/13 05:13:01;;;;;;;53.70;31.90;;;;;;;-4.71;100.00;100463.60;105293;1294;61759;-72
2022/12/13 05:15:29;;;;;;;64.00;32.90;;;;;;;-4.72;100.00;100463.61;105122;1295;61070;-70
2022/12/13 05:18:04;;;;;;;56.30;30.80;;;;;;;-4.73;100.00;100466.35;105122;1300;72603;-73
2022/12/13 05:20:38;;;;;;;46.70;24.90;;;;;;;-4.73;100.00;100465.33;105274;1286;68714;-73
2022/12/13 05:23:07;;;;;;;52.60;27.70;;;;;;;-4.60;100.00;100468.55;105262;1293;69615;-71
2022/12/13 05:25:36;;;;;;;59.60;25.90;;;;;;;-4.64;100.00;100467.74;105268;1288;71438;-72
2022/12/13 05:28:05;;;;;;;56.30;29.10;;;;;;;-4.70;100.00;100468.88;105283;1288;60627;-73
2022/12/13 05:31:04;;;;;;;41.20;23.70;;;;;;;-4.71;100.00;100471.93;105172;1288;60555;-70
2022/12/13 05:33:58;;;;;;;46.90;27.00;;;;;;;-4.71;100.00;100475.85;105182;1291;76014;-70
2022/12/13 05:36:35;;;;;;;56.90;27.80;;;;;;;-4.74;100.00;100476.55;105294;1291;71250;-73
2022/12/13 05:39:07;;;;;;;51.60;26.90;;;;;;;-4.82;100.00;100471.58;105225;1291;69449;-70
2022/12/13 05:42:02;;;;;;;56.60;28.10;;;;;;;-4.79;100.00;100483.25;105323;1289;70409;-73
2022/12/13 05:44:53;;;;;;;53.20;28.00;;;;;;;-4.85;100.00;100481.46;105309;1298;60019;-72
2022/12/13 05:47:21;;;;;;;49.00;26.00;;;;;;;-4.87;100.00;100483.54;105053;1294;61446;-73
2022/12/13 05:49:51;;;;;;;57.70;27.00;;;;;;;-4.88;100.00;100483.89;105173;1293;72489;-72
2022/12/13 05:52:21;;;;;;;47.90;24.30;;;;;;;-4.89;100.00;100489.84;105403;1288;72389;-72
2022/12/13 05:54:58;;;;;;;54.40;27.10;;;;;;;-4.95;100.00;100490.59;105142;1295;70394;-73
2022/12/13 05:57:40;;;;;;;59.50;28.50;;;;;;;-4.96;100.00;100493.66;105282;1294;73234;-72
2022/12/13 06:00:18;;;;;;;70.10;31.10;;;;;;;-5.01;100.00;100497.64;105219;1291;60016;-73
2022/12/13 06:02:59;;;;;;;89.10;37.30;;;;;;;-5.06;100.00;100500.06;105183;1296;60580;-73
2022/12/13 06:05:30;;;;;;;84.50;36.60;;;;;;;-5.13;100.00;100503.20;104953;1292;72884;-72
2022/12/13 06:07:59;;;;;;;80.80;36.30;;;;;;;-5.10;100.00;100505.39;104916;1295;70474;-72
2022/12/13 06:10:28;;;;;;;70.60;32.50;;;;;;;-5.09;100.00;100498.92;105195;1296;68026;-71
2022/12/13 06:13:04;;;;;;;67.50;30.10;;;;;;;-5.03;100.00;100498.51;105008;1291;72100;-73
2022/12/13 06:15:53;;;;;;;62.70;28.10;;;;;;;-4.98;100.00;100499.48;105072;1289;62120;-73
2022/12/13 06:18:32;;;;;;;60.50;26.70;;;;;;;-4.96;100.00;100498.08;105058;1295;58942;-73
2022/12/13 06:21:05;;;;;;;64.20;29.90;;;;;;;-4.89;100.00;100500.20;105222;1301;72627;-74
2022/12/13 06:23:34;;;;;;;;;;;;;;;-4.79;100.00;100499.91;105310;1287;69607;-74
2022/12/13 06:26:05;;;;;;;73.60;29.60;;;;;;;-4.65;100.00;100503.13;105169;1299;68119;-74
2022/12/13 06:28:41;;;;;;;64.00;29.30;;;;;;;-4.51;100.00;100503.61;105340;1291;74129;-71
2022/12/13 06:31:11;;;;;;;67.20;29.80;;;;;;;-4.40;100.00;100505.32;104983;1293;59762;-71
2022/12/13 06:33:43;;;;;;;62.50;28.30;;;;;;;-4.31;100.00;100507.91;105325;1283;59769;-72
2022/12/13 06:36:12;;;;;;;59.60;27.70;;;;;;;-4.20;100.00;100510.98;105460;1290;73744;-71
2022/12/13 06:38:41;;;;;;;89.10;42.80;;;;;;;-4.10;100.00;100514.06;105484;1286;69682;-72
2022/12/13 06:41:15;;;;;;;96.00;38.50;;;;;;;-4.02;100.00;100516.48;105303;1289;69455;-73
2022/12/13 06:43:45;;;;;;;80.50;36.40;;;;;;;-3.84;100.00;100516.03;105157;1295;72478;-72
2022/12/13 06:46:14;;;;;;;68.50;29.90;;;;;;;-3.85;100.00;100520.81;105133;1295;61557;-72
2022/12/13 06:48:44;;;;;;;61.50;28.30;;;;;;;-3.87;100.00;100522.03;105185;1301;60889;-71
2022/12/13 06:51:12;;;;;;;50.80;24.70;;;;;;;-3.88;100.00;100530.56;105365;1292;75130;-73
2022/12/13 06:53:51;;;;;;;41.20;19.60;;;;;;;-3.87;100.00;100534.45;105471;1298;70291;-74
2022/12/13 06:56:20;;;;;;;41.20;18.40;;;;;;;-3.85;100.00;100530.86;105156;1295;68373;-74
2022/12/13 06:58:48;;;;;;;39.60;19.60;;;;;;;-3.84;100.00;100530.34;105178;1294;74459;-75
2022/12/13 07:01:18;;;;;;;36.10;18.00;;;;;;;-3.83;100.00;100530.83;105340;1293;62091;-74
2022/12/13 07:03:56;;;;;;;45.90;21.60;;;;;;;-3.85;100.00;100531.52;105176;1296;59810;-74
2022/12/13 07:06:26;;;;;;;48.20;22.40;;;;;;;-3.83;100.00;100534.91;105157;1289;72730;-74
2022/12/13 07:08:57;;;;;;;51.50;23.50;;;;;;;-3.76;100.00;100536.82;105051;1293;70414;-74
2022/12/13 07:11:30;;;;;;;51.70;22.80;;;;;;;-3.77;100.00;100530.03;104942;1295;69722;-72
2022/12/13 07:13:59;;;;;;;48.20;23.40;;;;;;;-3.78;100.00;100536.54;105343;1283;74386;-74
2022/12/13 07:16:28;;;;;;;47.40;21.10;;;;;;;-3.83;100.00;100541.38;105320;1295;59955;-74
2022/12/13 07:19:00;;;;;;;63.40;29.20;;;;;;;-3.92;100.00;100537.25;105350;1298;58814;-77
2022/12/13 07:21:30;;;;;;;45.00;21.50;;;;;;;-3.89;100.00;100541.80;105193;1295;74485;-71
2022/12/13 07:24:01;;;;;;;46.50;21.70;;;;;;;-3.91;100.00;100539.12;105362;1286;71592;-74
2022/12/13 07:26:31;;;;;;;38.70;18.80;;;;;;;-3.90;100.00;100542.33;105318;1289;68762;-74
2022/12/13 07:29:03;;;;;;;43.00;20.10;;;;;;;-3.90;99.92;100546.25;105252;1287;73107;-77
2022/12/13 07:31:36;;;;;;;30.20;16.10;;;;;;;-3.87;98.50;100550.29;105194;1302;61872;-76
2022/12/13 07:34:05;;;;;;;;;;;;;;;-3.83;96.50;100556.18;105402;1295;59524;-73
2022/12/13 07:36:33;;;;;;;35.10;16.60;;;;;;;-3.81;93.61;100556.65;105229;1289;73714;-72
2022/12/13 07:39:02;;;;;;;38.10;16.90;;;;;;;-3.78;93.92;100564.10;105128;1294;71071;-72
2022/12/13 07:41:31;;;;;;;24.80;12.40;;;;;;;-3.78;92.78;100564.95;105395;1288;68882;-72
2022/12/13 07:44:00;;;;;;;31.00;15.80;;;;;;;-3.75;93.10;100566.25;105382;1299;71979;-72
2022/12/13 07:46:29;;;;;;;42.90;21.40;;;;;;;-3.62;93.34;100567.41;105070;1295;60101;-73
2022/12/13 07:49:02;;;;;;;42.00;19.20;;;;;;;-3.47;95.14;100569.39;105264;1292;60804;-72
2022/12/13 07:51:34;;;;;;;35.10;15.90;;;;;;;-3.27;95.29;100578.57;104981;1298;72560;-73
2022/12/13 07:54:03;;;;;;;27.60;13.70;;;;;;;-3.07;92.96;100583.48;105090;1293;72383;-72
2022/12/13 07:56:35;;;;;;;56.10;28.80;;;;;;;-2.91;92.51;100586.43;105243;1292;70221;-72
2022/12/13 07:59:04;;;;;;;43.10;22.60;;;;;;;-2.80;94.16;100591.84;105084;1298;73898;-74
2022/12/13 08:01:33;;;;;;;40.00;21.00;;;;;;;-2.67;93.42;100595.67;105317;1298;62073;-74
2022/12/13 08:04:03;;;;;;;31.80;14.50;;;;;;;-2.56;92.93;100593.75;105084;1300;61814;-73
2022/12/13 08:06:37;;;;;;;37.40;19.40;;;;;;;-2.49;91.63;100597.19;104922;1285;73295;-73
2022/12/13 08:09:06;;;;;;;28.60;14.30;;;;;;;-2.47;89.92;100599.36;105265;1298;70286;-74
2022/12/13 08:11:35;;;;;;;28.80;16.20;;;;;;;-2.34;89.43;100600.30;105159;1288;69078;-73
2022/12/13 08:14:05;;;;;;;24.70;13.00;;;;;;;-2.23;88.28;100601.42;105191;1286;71397;-74
2022/12/13 08:16:34;;;;;;;36.50;18.80;;;;;;;-2.15;88.33;100602.25;105173;1296;61218;-73
2022/12/13 08:19:03;;;;;;;35.90;16.20;;;;;;;-2.04;88.03;100601.86;105375;1292;61612;-74
2022/12/13 08:21:38;;;;;;;28.30;15.00;;;;;;;-1.84;90.56;100602.25;105165;1291;73063;-74
2022/12/13 08:24:28;;;;;;;18.90;10.40;;;;;;;-1.60;88.50;100596.40;105466;1293;70951;-74
2022/12/13 08:27:02;;;;;;;17.10;10.00;;;;;;;-1.38;84.42;100592.77;105155;1288;70717;-78
2022/12/13 08:29:33;;;;;;;16.60;10.00;;;;;;;-1.15;86.66;100594.08;105067;1292;74964;-74
2022/12/13 08:32:11;;;;;;;13.00;8.70;;;;;;;-1.00;79.88;100596.42;105219;1291;61772;-73
2022/12/13 08:34:40;;;;;;;11.50;6.80;;;;;;;-0.92;78.29;100596.20;105141;1295;58964;-75
2022/12/13 08:37:12;;;;;;;16.10;8.10;;;;;;;-0.87;75.38;100595.71;105307;1285;74383;-74
2022/12/13 08:39:43;;;;;;;10.30;6.10;;;;;;;-0.87;73.26;100597.45;105281;1289;71490;-73
2022/12/13 08:42:16;;;;;;;13.20;7.20;;;;;;;-0.83;73.51;100601.26;105169;1295;68715;-73
2022/12/13 08:44:49;;;;;;;13.80;7.70;;;;;;;-0.78;74.04;100598.91;105001;1296;73284;-74
2022/12/13 08:47:24;;;;;;;11.90;6.80;;;;;;;-0.76;73.81;100603.31;104964;1293;59703;-73
2022/12/13 08:49:58;;;;;;;14.60;8.40;;;;;;;-0.78;73.18;100602.15;105146;1298;59105;-73
2022/12/13 08:52:33;;;;;;;16.10;9.50;;;;;;;-0.79;73.04;100595.84;105145;1294;73616;-73
2022/12/13 08:55:12;;;;;;;13.80;6.70;;;;;;;-0.81;73.32;100590.78;105323;1285;72154;-74
2022/12/13 08:57:43;;;;;;;13.80;8.20;;;;;;;-0.83;73.23;100589.98;105033;1301;67702;-74
2022/12/13 09:00:18;;;;;;;11.60;7.00;;;;;;;-0.89;73.94;100589.61;105098;1295;73985;-77
2022/12/13 09:02:47;;;;;;;15.50;9.00;;;;;;;-0.84;74.58;100592.39;105128;1294;61255;-74
2022/12/13 09:05:16;;;;;;;16.00;9.50;;;;;;;-0.83;75.81;100584.86;105071;1291;61221;-73
2022/12/13 09:08:03;;;;;;;15.30;8.90;;;;;;;-0.78;75.36;100594.98;105165;1289;72248;-72
2022/12/13 09:10:58;;;;;;;13.60;8.80;;;;;;;-0.62;75.79;100598.61;104949;1295;72503;-73
2022/12/13 09:13:30;;;;;;;15.90;10.00;;;;;;;-0.60;76.10;100593.80;105022;1292;68605;-75
2022/12/13 09:16:12;;;;;;;14.10;9.30;;;;;;;-0.64;75.23;100603.83;104902;1297;74160;-73
2022/12/13 09:18:52;;;;;;;16.00;8.80;;;;;;;-0.59;74.51;100603.02;105024;1291;58599;-73
2022/12/13 09:21:26;;;;;;;22.00;11.10;;;;;;;-0.55;74.25;100602.38;104898;1296;59919;-73
2022/12/13 09:24:01;;;;;;;18.60;11.10;;;;;;;-0.46;75.98;100599.20;104915;1292;73148;-74
2022/12/13 09:26:30;;;;;;;19.70;11.60;;;;;;;-0.38;76.12;100599.49;105261;1285;70593;-74
2022/12/13 09:29:06;;;;;;;25.60;13.60;;;;;;;-0.45;75.41;100601.39;105004;1295;70652;-75
2022/12/13 09:31:42;;;;;;;16.60;10.60;;;;;;;-0.35;76.82;100599.73;105281;1288;74505;-74
2022/12/13 09:34:21;;;;;;;20.60;11.20;;;;;;;-0.33;75.77;100596.27;104898;1296;60153;-75
2022/12/13 09:36:50;;;;;;;20.70;12.20;;;;;;;-0.52;75.78;100603.48;104758;1295;61728;-75
2022/12/13 09:39:20;;;;;;;22.70;11.70;;;;;;;-0.52;76.47;100605.02;105018;1288;75250;-74
2022/12/13 09:41:53;;;;;;;24.60;12.40;;;;;;;-0.57;76.58;100609.95;105194;1288;73559;-75
2022/12/13 09:44:37;;;;;;;16.20;9.50;;;;;;;-0.64;77.54;100616.63;105207;1283;71576;-75
2022/12/13 09:47:45;;;;;;;18.80;10.60;;;;;;;-0.66;77.88;100622.16;105177;1289;74606;-75
2022/12/13 09:50:25;;;;;;;18.40;10.70;;;;;;;-0.72;78.47;100623.88;105086;1298;61677;-73
2022/12/13 09:52:56;;;;;;;20.90;12.20;;;;;;;-0.77;79.88;100626.41;105064;1291;59625;-75
2022/12/13 09:55:37;;;;;;;24.80;13.50;;;;;;;-0.81;80.54;100622.58;105064;1289;74426;-77
2022/12/13 09:58:33;;;;;;;24.50;13.90;;;;;;;-0.80;82.59;100621.02;104930;1293;71654;-77
2022/12/13 10:01:04;;;;;;;31.50;16.20;;;;;;;-0.71;82.81;100626.75;105023;1295;68209;-74
2022/12/13 10:03:33;;;;;;;20.00;11.50;;;;;;;-0.72;83.03;100626.29;104895;1297;71145;-73
2022/12/13 10:06:13;;;;;;;29.40;15.40;;;;;;;-0.70;83.90;100628.96;105000;1295;61443;-74
2022/12/13 10:08:53;;;;;;;28.70;16.20;;;;;;;-0.69;84.05;100627.04;104993;1294;59053;-74
2022/12/13 10:11:27;;;;;;;27.50;14.00;;;;;;;-0.77;84.28;100614.78;105123;1291;74629;-73
2022/12/13 10:14:18;;;;;;;19.20;9.70;;;;;;;-0.63;85.09;100628.59;105128;1285;70355;-73
2022/12/13 10:16:56;;;;;;;34.30;18.50;;;;;;;-0.65;83.94;100614.77;105158;1294;68370;-74
2022/12/13 10:19:33;;;;;;;20.90;10.00;;;;;;;-0.61;84.32;100621.52;105251;1292;74034;-73
2022/12/13 10:22:05;;;;;;;54.60;27.80;;;;;;;-0.77;83.95;100620.41;105211;1292;60412;-75
2022/12/13 10:25:06;;;;;;;27.70;15.60;;;;;;;-0.78;85.50;100617.55;105043;1295;61432;-74
2022/12/13 10:27:42;;;;;;;11.00;6.90;;;;;;;-0.68;86.67;100615.06;104860;1292;72430;-75
2022/12/13 10:30:21;;;;;;;24.10;14.10;;;;;;;-0.62;84.72;100614.38;105286;1286;72431;-74
2022/12/13 10:33:04;;;;;;;30.90;16.80;;;;;;;-0.63;85.68;100612.67;105221;1291;69824;-74
2022/12/13 10:35:35;;;;;;;35.90;19.50;;;;;;;-0.60;86.64;100612.95;105333;1292;73900;-77
2022/12/13 10:38:07;;;;;;;21.50;13.70;;;;;;;-0.48;87.69;100614.81;105203;1295;61016;-74
2022/12/13 10:40:39;;;;;;;21.10;10.30;;;;;;;-0.45;87.13;100612.52;105305;1293;60555;-73
2022/12/13 10:43:16;;;;;;;26.20;14.90;;;;;;;-0.45;84.67;100614.23;105299;1288;72138;-73
2022/12/13 10:45:56;;;;;;;21.30;11.70;;;;;;;-0.32;85.64;100613.69;105415;1289;72379;-75
2022/12/13 10:48:39;;;;;;;16.00;8.50;;;;;;;-0.20;84.28;100612.32;105424;1289;70528;-72
2022/12/13 10:51:14;;;;;;;;;;;;;;;-0.06;83.55;100611.56;105155;1295;71972;-72
2022/12/13 10:53:50;;;;;;;22.50;12.90;;;;;;;0.02;84.82;100615.06;105295;1283;62196;-73
2022/12/13 10:56:21;;;;;;;24.00;13.50;;;;;;;0.07;84.77;100616.81;105316;1286;61186;-74
2022/12/13 10:59:21;;;;;;;28.30;15.60;;;;;;;0.14;86.19;100613.51;105016;1297;72650;-72
2022/12/13 11:01:50;;;;;;;30.80;17.70;;;;;;;0.14;84.92;100612.31;105101;1298;70467;-71
2022/12/13 11:04:28;;;;;;;28.10;15.40;;;;;;;0.02;83.84;100613.54;105103;1291;69959;-72
2022/12/13 11:07:29;;;;;;;19.80;10.70;;;;;;;0.01;83.90;100615.61;105297;1289;73314;-72
2022/12/13 11:10:25;;;;;;;24.70;13.50;;;;;;;-0.06;83.46;100614.98;105194;1295;60772;-73
2022/12/13 11:13:05;;;;;;;21.50;13.20;;;;;;;-0.09;84.21;100614.36;105289;1288;59877;-73
2022/12/13 11:15:37;;;;;;;25.10;14.00;;;;;;;-0.35;82.93;100615.64;105324;1292;72555;-73
2022/12/13 11:18:19;;;;;;;23.80;12.50;;;;;;;-0.12;84.37;100615.33;105262;1289;71540;-72
2022/12/13 11:21:09;;;;;;;22.00;12.50;;;;;;;-0.16;84.98;100613.04;105356;1289;69992;-73
2022/12/13 11:23:45;;;;;;;15.70;9.60;;;;;;;-0.19;85.49;100615.68;105200;1286;71423;-71
2022/12/13 11:26:21;;;;;;;23.80;12.40;;;;;;;-0.08;84.53;100619.85;105333;1290;61511;-72
2022/12/13 11:29:13;;;;;;;21.30;12.00;;;;;;;-0.13;84.96;100616.05;105107;1294;59508;-72
2022/12/13 11:32:03;;;;;;;14.00;8.30;;;;;;;-0.19;85.71;100622.21;105313;1294;72578;-71
2022/12/13 11:34:35;;;;;;;17.70;9.60;;;;;;;-0.20;86.00;100619.50;105453;1289;69653;-72
2022/12/13 11:37:25;;;;;;;25.10;12.50;;;;;;;-0.17;86.82;100619.41;105389;1288;69856;-71
2022/12/13 11:40:03;;;;;;;21.20;11.60;;;;;;;-0.15;88.51;100619.36;105351;1299;73849;-71
2022/12/13 11:42:41;;;;;;;23.70;12.30;;;;;;;-0.07;89.04;100625.61;105309;1298;60653;-70